Time;durP1;ratioP1;P1;durP2;ratioP2;P2;SDS_P1;SDS_P2;PMS_P1;PMS_P2;Temp;Humidity;BMP_temperature;BMP_pressure;BME280_temperature;BME280_humidity;BME280_pressure;Samples;Min_cycle;Max_cycle;Signal;HPM_P1;HPM_P2
2022/03/26 00:01:46;;;;;;;;;;;;;;;;;;6116348;23;20380;-85
2022/03/26 00:04:13;;;;;;;;;;;;;;;;;;6089335;23;20015;-85
2022/03/26 00:06:41;;;;;;;;;;;;;;;;;;6112092;23;19931;-85
2022/03/26 00:09:08;;;;;;;;;;;;;;;;;;6089055;23;19928;-85
2022/03/26 00:11:34;;;;;;;;;;;;;;;;;;6088861;23;20704;-85
2022/03/26 00:14:07;;;;;;;;;;;;;;;;;;6172266;23;19923;-85
2022/03/26 00:16:53;;;;;;;;;;;;;;;;;;6027626;23;19922;-85
2022/03/26 00:19:19;;;;;;;;;;;;;;;;;;6001631;23;19922;-85
2022/03/26 00:21:47;;;;;;;;;;;;;;;;;;6002482;23;20514;-86
2022/03/26 00:24:15;;;;;;;;;;;;;;;;;;6025923;23;19926;-85
2022/03/26 00:26:41;;;;;;;;;;;;;;;;;;6025846;23;19922;-85
2022/03/26 00:29:09;;;;;;;;;;;;;;;;;;6003072;23;19926;-86
2022/03/26 00:31:42;;;;;;;;;;;;;;;;;;6026503;23;19917;-86
2022/03/26 00:34:09;;;;;;;;;;;;;;;;;;6027108;23;19971;-85
2022/03/26 00:36:36;;;;;;;;;;;;;;;;;;6025602;23;19930;-85
2022/03/26 00:39:22;;;;;;;;;;;;;;;;;;6025738;23;19922;-85
2022/03/26 00:41:51;;;;;;;;;;;;;;;;;;6026138;23;19922;-85
2022/03/26 00:44:20;;;;;;;;;;;;;;;;;;6004610;23;19925;-85
2022/03/26 00:46:50;;;;;;;;;;;;;;;;;;6012768;23;19957;-86
2022/03/26 00:49:27;;;;;;;;;;;;;;;;;;6090230;23;20310;-86
2022/03/26 00:51:54;;;;;;;;;;;;;;;;;;6067059;23;19976;-85
2022/03/26 00:54:21;;;;;;;;;;;;;;;;;;6088820;23;19927;-85
2022/03/26 00:56:48;;;;;;;;;;;;;;;;;;6065752;23;20381;-86
2022/03/26 00:59:17;;;;;;;;;;;;;;;;;;6090263;23;19972;-85
2022/03/26 01:01:44;;;;;;;;;;;;;;;;;;6089573;23;19925;-85
2022/03/26 01:04:12;;;;;;;;;;;;;;;;;;6089803;23;19921;-86
2022/03/26 01:06:39;;;;;;;;;;;;;;;;;;6088452;23;19997;-85
2022/03/26 01:09:07;;;;;;;;;;;;;;;;;;6112643;23;19925;-85
2022/03/26 01:11:53;;;;;;;;;;;;;;;;;;6146415;23;19921;-85
2022/03/26 01:14:21;;;;;;;;;;;;;;;;;;6145485;23;20420;-85
2022/03/26 01:16:48;;;;;;;;;;;;;;;;;;6171428;23;19916;-85
2022/03/26 01:19:15;;;;;;;;;;;;;;;;;;6121687;23;20331;-85
2022/03/26 01:21:46;;;;;;;;;;;;;;;;;;6122818;23;19920;-85
2022/03/26 01:24:14;;;;;;;;;;;;;;;;;;6171849;23;19916;-85
2022/03/26 01:26:41;;;;;;;;;;;;;;;;;;6121749;23;19970;-85
2022/03/26 01:29:09;;;;;;;;;;;;;;;;;;6121971;23;19924;-85
2022/03/26 01:31:37;;;;;;;;;;;;;;;;;;6145890;23;20020;-85
2022/03/26 01:34:17;;;;;;;;;;;;;;;;;;6171270;23;19927;-85
2022/03/26 01:36:44;;;;;;;;;;;;;;;;;;6146348;23;20681;-85
2022/03/26 01:39:14;;;;;;;;;;;;;;;;;;6170303;23;19920;-85
2022/03/26 01:41:41;;;;;;;;;;;;;;;;;;6121545;23;20445;-85
2022/03/26 01:44:08;;;;;;;;;;;;;;;;;;6144761;23;19920;-85
2022/03/26 01:46:49;;;;;;;;;;;;;;;;;;6111923;23;19927;-85
2022/03/26 01:49:16;;;;;;;;;;;;;;;;;;6109710;23;20270;-85
2022/03/26 01:51:43;;;;;;;;;;;;;;;;;;6113716;23;19916;-85
2022/03/26 01:54:11;;;;;;;;;;;;;;;;;;6111779;23;20313;-85
2022/03/26 01:56:38;;;;;;;;;;;;;;;;;;6112739;23;19921;-85
2022/03/26 01:59:05;;;;;;;;;;;;;;;;;;6112039;23;19925;-85
2022/03/26 02:01:38;;;;;;;;;;;;;;;;;;6119014;23;19958;-86
2022/03/26 02:04:06;;;;;;;;;;;;;;;;;;6116886;23;19924;-85
2022/03/26 02:06:33;;;;;;;;;;;;;;;;;;6116957;23;20459;-85
2022/03/26 02:09:00;;;;;;;;;;;;;;;;;;6118183;23;19925;-85
2022/03/26 02:11:28;;;;;;;;;;;;;;;;;;6116504;23;20000;-85
2022/03/26 02:13:55;;;;;;;;;;;;;;;;;;6118333;23;19979;-85
2022/03/26 02:16:21;;;;;;;;;;;;;;;;;;6119195;23;19991;-85
2022/03/26 02:18:48;;;;;;;;;;;;;;;;;;6169496;23;19931;-85
2022/03/26 02:21:16;;;;;;;;;;;;;;;;;;6174235;23;19974;-85
2022/03/26 02:23:43;;;;;;;;;;;;;;;;;;6198812;23;19942;-85
2022/03/26 02:26:27;;;;;;;;;;;;;;;;;;6113782;23;19921;-85
2022/03/26 02:28:54;;;;;;;;;;;;;;;;;;6057152;23;19928;-85
2022/03/26 02:31:22;;;;;;;;;;;;;;;;;;6089959;23;19921;-85
2022/03/26 02:33:49;;;;;;;;;;;;;;;;;;6089715;23;19928;-85
2022/03/26 02:36:16;;;;;;;;;;;;;;;;;;6064712;23;19921;-85
2022/03/26 02:38:44;;;;;;;;;;;;;;;;;;6065036;23;19921;-85
2022/03/26 02:41:10;;;;;;;;;;;;;;;;;;6112486;23;19955;-85
2022/03/26 02:43:37;;;;;;;;;;;;;;;;;;6066805;23;19917;-85
2022/03/26 02:46:03;;;;;;;;;;;;;;;;;;6089015;23;20257;-85
2022/03/26 02:48:44;;;;;;;;;;;;;;;;;;6027589;23;19926;-85
2022/03/26 02:51:10;;;;;;;;;;;;;;;;;;6004361;23;20391;-85
2022/03/26 02:53:36;;;;;;;;;;;;;;;;;;6027237;23;19964;-86
2022/03/26 02:56:19;;;;;;;;;;;;;;;;;;5972477;23;19975;-85
2022/03/26 02:58:47;;;;;;;;;;;;;;;;;;6032323;23;19977;-85
2022/03/26 03:01:23;;;;;;;;;;;;;;;;;;6031795;23;19925;-85
2022/03/26 03:03:51;;;;;;;;;;;;;;;;;;6056670;23;19921;-85
2022/03/26 03:06:17;;;;;;;;;;;;;;;;;;6017764;23;20154;-85
2022/03/26 03:08:44;;;;;;;;;;;;;;;;;;5975048;23;20333;-85
2022/03/26 03:11:11;;;;;;;;;;;;;;;;;;5998331;23;19993;-85
2022/03/26 03:13:39;;;;;;;;;;;;;;;;;;5974941;23;19922;-85
2022/03/26 03:16:09;;;;;;;;;;;;;;;;;;5997835;23;19922;-85
2022/03/26 03:18:35;;;;;;;;;;;;;;;;;;5998314;23;19922;-81
2022/03/26 03:21:02;;;;;;;;;;;;;;;;;;5997636;23;19922;-81
2022/03/26 03:23:28;;;;;;;;;;;;;;;;;;5998435;23;20384;-81
2022/03/26 03:25:57;;;;;;;;;;;;;;;;;;6010249;23;19917;-80
2022/03/26 03:28:26;;;;;;;;;;;;;;;;;;6082811;23;19926;-80
2022/03/26 03:30:53;;;;;;;;;;;;;;;;;;6060206;23;20377;-80
2022/03/26 03:33:41;;;;;;;;;;;;;;;;;;6060042;23;20322;-80
2022/03/26 03:36:07;;;;;;;;;;;;;;;;;;6060680;23;19944;-80
2022/03/26 03:38:45;;;;;;;;;;;;;;;;;;6064000;23;19932;-80
2022/03/26 03:41:12;;;;;;;;;;;;;;;;;;6037909;23;19928;-80
2022/03/26 03:43:43;;;;;;;;;;;;;;;;;;6085874;23;19925;-81
2022/03/26 03:46:10;;;;;;;;;;;;;;;;;;6060992;23;19961;-80
2022/03/26 03:48:38;;;;;;;;;;;;;;;;;;6037888;23;19925;-80
2022/03/26 03:51:05;;;;;;;;;;;;;;;;;;6061703;23;20000;-80
2022/03/26 03:53:31;;;;;;;;;;;;;;;;;;6037288;23;19917;-80
2022/03/26 03:55:58;;;;;;;;;;;;;;;;;;6060229;23;19953;-81
2022/03/26 03:58:25;;;;;;;;;;;;;;;;;;6063813;23;19925;-81
2022/03/26 04:00:51;;;;;;;;;;;;;;;;;;6089571;23;19921;-80
2022/03/26 04:03:19;;;;;;;;;;;;;;;;;;6067333;23;19959;-81
2022/03/26 04:05:46;;;;;;;;;;;;;;;;;;6114911;23;20369;-80
2022/03/26 04:08:13;;;;;;;;;;;;;;;;;;6125776;23;20047;-80
2022/03/26 04:10:41;;;;;;;;;;;;;;;;;;6148091;23;20085;-80
2022/03/26 04:13:08;;;;;;;;;;;;;;;;;;6124824;23;20024;-80
2022/03/26 04:15:36;;;;;;;;;;;;;;;;;;6124567;23;19931;-80
2022/03/26 04:18:17;;;;;;;;;;;;;;;;;;6085809;23;20354;-80
2022/03/26 04:20:43;;;;;;;;;;;;;;;;;;6060041;23;20004;-80
2022/03/26 04:23:10;;;;;;;;;;;;;;;;;;6065208;23;20323;-81
2022/03/26 04:25:38;;;;;;;;;;;;;;;;;;6091777;23;20742;-80
2022/03/26 04:28:24;;;;;;;;;;;;;;;;;;6094172;23;19928;-80
2022/03/26 04:30:51;;;;;;;;;;;;;;;;;;6065737;23;19921;-80
2022/03/26 04:33:18;;;;;;;;;;;;;;;;;;6090528;23;19944;-80
2022/03/26 04:35:46;;;;;;;;;;;;;;;;;;6067382;23;20317;-80
2022/03/26 04:38:13;;;;;;;;;;;;;;;;;;6065755;23;19920;-80
2022/03/26 04:40:40;;;;;;;;;;;;;;;;;;6090485;23;19921;-80
2022/03/26 04:43:07;;;;;;;;;;;;;;;;;;6089076;23;20064;-80
2022/03/26 04:45:35;;;;;;;;;;;;;;;;;;6066799;23;19921;-80
2022/03/26 04:48:11;;;;;;;;;;;;;;;;;;6116360;23;19921;-80
2022/03/26 04:50:37;;;;;;;;;;;;;;;;;;6176236;23;19995;-81
2022/03/26 04:53:04;;;;;;;;;;;;;;;;;;6174522;23;20384;-80
2022/03/26 04:55:31;;;;;;;;;;;;;;;;;;6198648;23;19920;-80
2022/03/26 04:57:59;;;;;;;;;;;;;;;;;;6176204;23;19992;-80
2022/03/26 05:00:29;;;;;;;;;;;;;;;;;;6176919;23;19920;-80
2022/03/26 05:02:56;;;;;;;;;;;;;;;;;;6176099;23;19995;-80
2022/03/26 05:05:23;;;;;;;;;;;;;;;;;;6174258;23;19959;-80
2022/03/26 05:07:51;;;;;;;;;;;;;;;;;;6201195;23;20035;-80
2022/03/26 05:10:19;;;;;;;;;;;;;;;;;;6174418;23;19926;-80
2022/03/26 05:13:06;;;;;;;;;;;;;;;;;;6149021;23;19987;-80
2022/03/26 05:15:35;;;;;;;;;;;;;;;;;;6100377;23;19917;-80
2022/03/26 05:18:03;;;;;;;;;;;;;;;;;;6147778;23;19920;-80
2022/03/26 05:21:03;;;;;;;;;;;;;;;;;;6114532;23;19917;-81
2022/03/26 05:23:30;;;;;;;;;;;;;;;;;;6086252;23;19944;-80
2022/03/26 05:25:56;;;;;;;;;;;;;;;;;;6090528;23;19921;-80
2022/03/26 05:28:24;;;;;;;;;;;;;;;;;;6090148;23;20283;-81
2022/03/26 05:30:50;;;;;;;;;;;;;;;;;;6078601;23;20003;-80
2022/03/26 05:33:17;;;;;;;;;;;;;;;;;;6088019;23;19921;-80
2022/03/26 05:35:43;;;;;;;;;;;;;;;;;;6115777;23;20281;-81
2022/03/26 05:38:24;;;;;;;;;;;;;;;;;;6114958;23;20394;-80
2022/03/26 05:40:52;;;;;;;;;;;;;;;;;;6104585;23;20426;-80
2022/03/26 05:43:19;;;;;;;;;;;;;;;;;;6083127;23;19948;-80
2022/03/26 05:45:46;;;;;;;;;;;;;;;;;;6089495;23;19917;-80
2022/03/26 05:48:15;;;;;;;;;;;;;;;;;;6089022;23;19956;-80
2022/03/26 05:50:42;;;;;;;;;;;;;;;;;;6091670;23;19929;-80
2022/03/26 05:53:09;;;;;;;;;;;;;;;;;;6172145;23;19920;-80
2022/03/26 05:55:36;;;;;;;;;;;;;;;;;;6126408;23;19961;-80
2022/03/26 05:58:03;;;;;;;;;;;;;;;;;;6171955;23;19920;-81
2022/03/26 06:00:30;;;;;;;;;;;;;;;;;;6181193;23;19920;-80
2022/03/26 06:02:56;;;;;;;;;;;;;;;;;;6181963;23;19920;-81
2022/03/26 06:05:23;;;;;;;;;;;;;;;;;;6182223;23;19926;-81
2022/03/26 06:07:51;;;;;;;;;;;;;;;;;;6183266;23;19915;-81
2022/03/26 06:10:18;;;;;;;;;;;;;;;;;;6181209;23;20226;-81
2022/03/26 06:12:45;;;;;;;;;;;;;;;;;;6180905;23;19931;-81
2022/03/26 06:15:12;;;;;;;;;;;;;;;;;;6180846;23;20093;-81
2022/03/26 06:17:40;;;;;;;;;;;;;;;;;;6182312;23;20182;-81
2022/03/26 06:20:06;;;;;;;;;;;;;;;;;;6181661;23;19927;-81
2022/03/26 06:22:32;;;;;;;;;;;;;;;;;;6206307;23;19919;-81
2022/03/26 06:25:03;;;;;;;;;;;;;;;;;;6181023;23;19924;-80
2022/03/26 06:27:30;;;;;;;;;;;;;;;;;;6180875;23;20449;-80
2022/03/26 06:29:57;;;;;;;;;;;;;;;;;;6207451;23;19924;-80
2022/03/26 06:32:25;;;;;;;;;;;;;;;;;;6181442;23;19926;-80
2022/03/26 06:34:52;;;;;;;;;;;;;;;;;;6182150;23;19920;-81
2022/03/26 06:37:19;;;;;;;;;;;;;;;;;;6182200;23;20094;-81
2022/03/26 06:39:46;;;;;;;;;;;;;;;;;;6181185;23;19935;-80
2022/03/26 06:42:13;;;;;;;;;;;;;;;;;;6182003;23;19979;-80
2022/03/26 06:44:40;;;;;;;;;;;;;;;;;;6182664;23;19948;-81
2022/03/26 06:47:22;;;;;;;;;;;;;;;;;;6208605;23;19966;-80
2022/03/26 06:49:58;;;;;;;;;;;;;;;;;;6207940;23;19931;-81
2022/03/26 06:52:26;;;;;;;;;;;;;;;;;;6181349;23;19978;-80
2022/03/26 06:54:52;;;;;;;;;;;;;;;;;;6183172;23;19973;-80
2022/03/26 06:57:20;;;;;;;;;;;;;;;;;;6181907;23;20248;-81
2022/03/26 06:59:47;;;;;;;;;;;;;;;;;;6180974;23;20344;-81
2022/03/26 07:02:14;;;;;;;;;;;;;;;;;;6180878;23;19920;-81
2022/03/26 07:04:42;;;;;;;;;;;;;;;;;;6183511;23;19963;-81
2022/03/26 07:07:08;;;;;;;;;;;;;;;;;;6207190;23;19982;-80
2022/03/26 07:09:36;;;;;;;;;;;;;;;;;;6182264;23;19974;-81
2022/03/26 07:12:18;;;;;;;;;;;;;;;;;;6207616;23;19927;-81
2022/03/26 07:14:45;;;;;;;;;;;;;;;;;;6207903;23;19962;-81
2022/03/26 07:17:13;;;;;;;;;;;;;;;;;;6182706;23;19923;-81
2022/03/26 07:19:40;;;;;;;;;;;;;;;;;;6183747;23;19924;-81
2022/03/26 07:22:16;;;;;;;;;;;;;;;;;;6210183;23;19926;-81
2022/03/26 07:24:49;;;;;;;;;;;;;;;;;;6182476;23;19969;-81
2022/03/26 07:27:30;;;;;;;;;;;;;;;;;;6145151;23;19925;-81
2022/03/26 07:29:57;;;;;;;;;;;;;;;;;;6096155;23;20354;-81
2022/03/26 07:32:25;;;;;;;;;;;;;;;;;;6121057;23;19920;-81
2022/03/26 07:34:53;;;;;;;;;;;;;;;;;;6120157;23;20332;-81
2022/03/26 07:37:29;;;;;;;;;;;;;;;;;;6146464;23;19928;-81
2022/03/26 07:40:10;;;;;;;;;;;;;;;;;;6095091;23;19948;-81
2022/03/26 07:42:36;;;;;;;;;;;;;;;;;;6116980;23;19928;-81
2022/03/26 07:45:22;;;;;;;;;;;;;;;;;;6116144;23;19924;-81
2022/03/26 07:47:50;;;;;;;;;;;;;;;;;;6116296;23;20361;-81
2022/03/26 07:50:20;;;;;;;;;;;;;;;;;;6114521;23;19932;-81
2022/03/26 07:52:48;;;;;;;;;;;;;;;;;;6115675;23;20278;-81
2022/03/26 07:55:15;;;;;;;;;;;;;;;;;;6091200;23;20409;-81
2022/03/26 07:57:41;;;;;;;;;;;;;;;;;;6120302;23;19928;-81
2022/03/26 08:00:09;;;;;;;;;;;;;;;;;;6118882;23;19924;-81
2022/03/26 08:02:36;;;;;;;;;;;;;;;;;;6119973;23;19916;-81
2022/03/26 08:05:04;;;;;;;;;;;;;;;;;;6120119;23;20432;-81
2022/03/26 08:07:30;;;;;;;;;;;;;;;;;;6119802;23;19980;-81
2022/03/26 08:10:03;;;;;;;;;;;;;;;;;;6120448;23;20328;-81
2022/03/26 08:12:29;;;;;;;;;;;;;;;;;;6179422;23;19920;-81
2022/03/26 08:14:56;;;;;;;;;;;;;;;;;;6180626;23;20019;-81
2022/03/26 08:17:25;;;;;;;;;;;;;;;;;;6182216;23;19970;-81
2022/03/26 08:19:53;;;;;;;;;;;;;;;;;;6181599;23;19920;-81
2022/03/26 08:22:35;;;;;;;;;;;;;;;;;;6206761;23;19931;-81
2022/03/26 08:25:02;;;;;;;;;;;;;;;;;;6180075;23;19919;-81
2022/03/26 08:27:30;;;;;;;;;;;;;;;;;;6180165;23;19919;-81
2022/03/26 08:29:57;;;;;;;;;;;;;;;;;;6180825;23;19920;-81
2022/03/26 08:32:24;;;;;;;;;;;;;;;;;;6180471;23;19962;-81
2022/03/26 08:34:51;;;;;;;;;;;;;;;;;;6181343;23;20240;-81
2022/03/26 08:37:18;;;;;;;;;;;;;;;;;;6181372;23;20352;-81
2022/03/26 08:39:45;;;;;;;;;;;;;;;;;;6182445;23;19998;-81
2022/03/26 08:42:12;;;;;;;;;;;;;;;;;;6180831;23;19920;-81
2022/03/26 08:44:39;;;;;;;;;;;;;;;;;;6180251;23;19920;-81
2022/03/26 08:47:06;;;;;;;;;;;;;;;;;;6180473;23;19916;-81
2022/03/26 08:49:33;;;;;;;;;;;;;;;;;;6181282;23;20593;-81
2022/03/26 08:52:21;;;;;;;;;;;;;;;;;;6203008;23;19962;-82
2022/03/26 08:54:49;;;;;;;;;;;;;;;;;;6180166;23;19966;-82
2022/03/26 08:57:17;;;;;;;;;;;;;;;;;;6181291;23;19920;-81
2022/03/26 08:59:47;;;;;;;;;;;;;;;;;;6207454;23;19916;-81
2022/03/26 09:02:14;;;;;;;;;;;;;;;;;;6180523;23;19920;-81
2022/03/26 09:04:45;;;;;;;;;;;;;;;;;;6181114;23;20404;-83
2022/03/26 09:07:12;;;;;;;;;;;;;;;;;;6176867;23;19920;-82
2022/03/26 09:09:49;;;;;;;;;;;;;;;;;;6179468;23;19975;-82
2022/03/26 09:12:16;;;;;;;;;;;;;;;;;;6177053;23;19927;-82
2022/03/26 09:14:43;;;;;;;;;;;;;;;;;;6178716;23;20338;-82
2022/03/26 09:17:10;;;;;;;;;;;;;;;;;;6179435;23;19967;-82
2022/03/26 09:19:37;;;;;;;;;;;;;;;;;;6179302;23;19924;-82
2022/03/26 09:22:04;;;;;;;;;;;;;;;;;;6179107;23;19922;-82
2022/03/26 09:24:30;;;;;;;;;;;;;;;;;;6179425;23;19916;-82
2022/03/26 09:27:02;;;;;;;;;;;;;;;;;;6181107;23;19923;-82
2022/03/26 09:29:29;;;;;;;;;;;;;;;;;;6177916;23;19951;-82
2022/03/26 09:31:56;;;;;;;;;;;;;;;;;;6175251;23;19944;-82
2022/03/26 09:34:23;;;;;;;;;;;;;;;;;;6175419;23;19916;-82
2022/03/26 09:36:52;;;;;;;;;;;;;;;;;;6174774;23;19927;-82
2022/03/26 09:39:20;;;;;;;;;;;;;;;;;;6176154;23;19920;-82
2022/03/26 09:41:47;;;;;;;;;;;;;;;;;;6174919;23;19927;-82
2022/03/26 09:44:23;;;;;;;;;;;;;;;;;;6177633;23;19998;-82
2022/03/26 09:46:49;;;;;;;;;;;;;;;;;;6175603;23;20004;-82
2022/03/26 09:49:16;;;;;;;;;;;;;;;;;;6175703;23;20253;-82
2022/03/26 09:51:44;;;;;;;;;;;;;;;;;;6178580;23;19952;-82
2022/03/26 09:54:12;;;;;;;;;;;;;;;;;;6177846;23;19916;-83
2022/03/26 09:56:40;;;;;;;;;;;;;;;;;;6176652;23;19999;-82
2022/03/26 09:59:07;;;;;;;;;;;;;;;;;;6176224;23;19921;-82
2022/03/26 10:01:34;;;;;;;;;;;;;;;;;;6172971;23;19920;-82
2022/03/26 10:04:02;;;;;;;;;;;;;;;;;;6174560;23;19926;-83
2022/03/26 10:06:35;;;;;;;;;;;;;;;;;;6170329;23;20403;-83
2022/03/26 10:09:02;;;;;;;;;;;;;;;;;;6195870;23;19928;-82
2022/03/26 10:11:29;;;;;;;;;;;;;;;;;;6171294;23;19924;-83
2022/03/26 10:13:55;;;;;;;;;;;;;;;;;;6171693;23;20396;-82
2022/03/26 10:16:36;;;;;;;;;;;;;;;;;;6142370;23;19922;-82
2022/03/26 10:19:04;;;;;;;;;;;;;;;;;;6142277;23;20515;-82
2022/03/26 10:21:31;;;;;;;;;;;;;;;;;;6142490;23;20376;-82
2022/03/26 10:23:58;;;;;;;;;;;;;;;;;;6093313;23;19966;-82
2022/03/26 10:26:24;;;;;;;;;;;;;;;;;;6117638;23;19948;-82
2022/03/26 10:28:52;;;;;;;;;;;;;;;;;;6143005;23;19924;-82
2022/03/26 10:34:07;;;;;;;;;;;;;;;;;;6117344;23;19943;-82
2022/03/26 10:36:38;;;;;;;;;;;;;;;;;;6143329;23;20226;-82
2022/03/26 10:39:05;;;;;;;;;;;;;;;;;;6095260;23;19921;-82
2022/03/26 10:41:33;;;;;;;;;;;;;;;;;;6095316;23;20362;-82
2022/03/26 10:44:00;;;;;;;;;;;;;;;;;;6120045;23;19952;-82
2022/03/26 10:46:27;;;;;;;;;;;;;;;;;;6119706;23;20694;-82
2022/03/26 10:48:54;;;;;;;;;;;;;;;;;;6175609;23;20294;-82
2022/03/26 10:51:20;;;;;;;;;;;;;;;;;;6174932;23;19927;-82
2022/03/26 10:53:47;;;;;;;;;;;;;;;;;;6176553;23;19920;-82
2022/03/26 10:56:14;;;;;;;;;;;;;;;;;;6175512;23;19916;-82
2022/03/26 10:58:41;;;;;;;;;;;;;;;;;;6176902;23;20011;-81
2022/03/26 11:01:08;;;;;;;;;;;;;;;;;;6177540;23;19963;-82
2022/03/26 11:03:36;;;;;;;;;;;;;;;;;;6178885;23;19920;-81
2022/03/26 11:06:03;;;;;;;;;;;;;;;;;;6185753;23;19930;-82
2022/03/26 11:08:29;;;;;;;;;;;;;;;;;;6181297;23;19998;-81
2022/03/26 11:11:15;;;;;;;;;;;;;;;;;;6206499;23;19922;-82
2022/03/26 11:13:42;;;;;;;;;;;;;;;;;;6207601;23;19935;-81
2022/03/26 11:16:09;;;;;;;;;;;;;;;;;;6206918;23;19919;-82
2022/03/26 11:18:36;;;;;;;;;;;;;;;;;;6180825;23;20245;-81
2022/03/26 11:21:02;;;;;;;;;;;;;;;;;;6180521;23;19920;-82
2022/03/26 11:23:29;;;;;;;;;;;;;;;;;;6180303;23;19995;-81
2022/03/26 11:25:55;;;;;;;;;;;;;;;;;;6179060;23;20001;-81
2022/03/26 11:28:23;;;;;;;;;;;;;;;;;;6202377;23;19920;-82
2022/03/26 11:30:49;;;;;;;;;;;;;;;;;;6179103;23;19923;-82
2022/03/26 11:33:16;;;;;;;;;;;;;;;;;;6179527;23;19920;-82
2022/03/26 11:35:43;;;;;;;;;;;;;;;;;;6179843;23;19919;-81
2022/03/26 11:38:10;;;;;;;;;;;;;;;;;;6178974;23;19920;-81
2022/03/26 11:40:37;;;;;;;;;;;;;;;;;;6180310;23;19927;-82
2022/03/26 11:43:05;;;;;;;;;;;;;;;;;;6179979;23;19924;-81
2022/03/26 11:51:06;;;;;;;;;;;;;;;;;;6178053;23;19919;-82
2022/03/26 11:53:34;;;;;;;;;;;;;;;;;;6179773;23;19939;-80
2022/03/26 11:56:02;;;;;;;;;;;;;;;;;;6175885;23;19920;-80
2022/03/26 11:58:31;;;;;;;;;;;;;;;;;;6171045;23;19920;-80
2022/03/26 12:00:58;;;;;;;;;;;;;;;;;;6172749;23;19927;-80
2022/03/26 12:03:25;;;;;;;;;;;;;;;;;;6122801;23;19920;-80
2022/03/26 12:08:57;;;;;;;;;;;;;;;;;;6145595;23;19930;-80
2022/03/26 12:11:24;;;;;;;;;;;;;;;;;;6148174;23;19920;-79
2022/03/26 12:13:51;;;;;;;;;;;;;;;;;;6125338;23;19951;-80
2022/03/26 12:16:19;;;;;;;;;;;;;;;;;;6123970;23;19920;-80
2022/03/26 12:18:46;;;;;;;;;;;;;;;;;;6151801;23;19958;-80
2022/03/26 12:21:12;;;;;;;;;;;;;;;;;;6148583;23;20334;-80
2022/03/26 12:23:38;;;;;;;;;;;;;;;;;;6151769;23;19920;-81
2022/03/26 12:26:05;;;;;;;;;;;;;;;;;;6124578;23;19920;-81
2022/03/26 12:28:32;;;;;;;;;;;;;;;;;;6127179;23;19920;-81
2022/03/26 12:31:04;;;;;;;;;;;;;;;;;;6150684;23;20393;-81
2022/03/26 12:33:31;;;;;;;;;;;;;;;;;;6176942;23;20389;-81
2022/03/26 12:35:58;;;;;;;;;;;;;;;;;;6137673;23;19944;-81
2022/03/26 12:38:26;;;;;;;;;;;;;;;;;;6177658;23;20300;-81
2022/03/26 12:40:53;;;;;;;;;;;;;;;;;;6179183;23;19959;-81
2022/03/26 12:43:20;;;;;;;;;;;;;;;;;;6178343;23;20289;-81
2022/03/26 12:45:47;;;;;;;;;;;;;;;;;;6181026;23;19926;-80
2022/03/26 12:48:29;;;;;;;;;;;;;;;;;;6181263;23;19916;-81
2022/03/26 12:50:56;;;;;;;;;;;;;;;;;;6178522;23;20321;-81
2022/03/26 12:53:24;;;;;;;;;;;;;;;;;;6177701;23;19920;-81
2022/03/26 12:55:51;;;;;;;;;;;;;;;;;;6178432;23;19920;-81
2022/03/26 13:01:06;;;;;;;;;;;;;;;;;;6178487;23;20063;-81
2022/03/26 13:03:33;;;;;;;;;;;;;;;;;;6177917;23;19923;-81
2022/03/26 13:06:00;;;;;;;;;;;;;;;;;;6174661;23;19920;-81
2022/03/26 13:08:36;;;;;;;;;;;;;;;;;;6196828;23;19927;-78
2022/03/26 13:11:04;;;;;;;;;;;;;;;;;;6173866;23;19991;-79
2022/03/26 13:13:32;;;;;;;;;;;;;;;;;;6175746;23;19926;-80
2022/03/26 13:15:59;;;;;;;;;;;;;;;;;;6176800;23;19916;-79
2022/03/26 13:18:26;;;;;;;;;;;;;;;;;;6178074;23;19920;-79
2022/03/26 13:20:52;;;;;;;;;;;;;;;;;;6178170;23;20293;-79
2022/03/26 13:23:19;;;;;;;;;;;;;;;;;;6178166;23;19920;-79
2022/03/26 13:25:46;;;;;;;;;;;;;;;;;;6177933;23;19927;-79
2022/03/26 13:28:19;;;;;;;;;;;;;;;;;;6178963;23;19927;-78
2022/03/26 13:31:00;;;;;;;;;;;;;;;;;;6117403;23;19920;-78
2022/03/26 13:33:28;;;;;;;;;;;;;;;;;;6093132;23;19943;-79
2022/03/26 13:35:58;;;;;;;;;;;;;;;;;;6094021;23;19983;-79
2022/03/26 13:38:26;;;;;;;;;;;;;;;;;;6090147;23;19927;-79
2022/03/26 13:40:53;;;;;;;;;;;;;;;;;;6088392;23;19921;-79
2022/03/26 13:43:20;;;;;;;;;;;;;;;;;;6089650;23;19917;-79
2022/03/26 13:45:46;;;;;;;;;;;;;;;;;;6090161;23;20028;-79
2022/03/26 13:48:14;;;;;;;;;;;;;;;;;;6065357;23;19991;-79
2022/03/26 13:50:41;;;;;;;;;;;;;;;;;;6064491;23;19932;-79
2022/03/26 13:53:08;;;;;;;;;;;;;;;;;;6089622;23;19920;-79
2022/03/26 13:55:35;;;;;;;;;;;;;;;;;;6088910;23;19925;-79
2022/03/26 13:58:10;;;;;;;;;;;;;;;;;;6089251;23;19921;-79
2022/03/26 14:00:40;;;;;;;;;;;;;;;;;;6088356;23;19979;-79
2022/03/26 14:03:07;;;;;;;;;;;;;;;;;;6170188;23;19920;-79
2022/03/26 14:05:35;;;;;;;;;;;;;;;;;;6170669;23;19924;-79
2022/03/26 14:08:02;;;;;;;;;;;;;;;;;;6172812;23;20011;-78
2022/03/26 14:10:28;;;;;;;;;;;;;;;;;;6176299;23;19963;-79
2022/03/26 14:12:56;;;;;;;;;;;;;;;;;;6201076;23;19920;-79
2022/03/26 14:15:24;;;;;;;;;;;;;;;;;;6178328;23;20245;-79
2022/03/26 14:17:51;;;;;;;;;;;;;;;;;;6176271;23;19920;-80
2022/03/26 14:20:18;;;;;;;;;;;;;;;;;;6177090;23;19940;-79
2022/03/26 14:22:45;;;;;;;;;;;;;;;;;;6177022;23;19925;-79
2022/03/26 14:25:13;;;;;;;;;;;;;;;;;;6178460;23;19955;-79
2022/03/26 14:27:41;;;;;;;;;;;;;;;;;;6178332;23;19959;-79
2022/03/26 14:30:08;;;;;;;;;;;;;;;;;;6179194;23;19951;-79
2022/03/26 14:32:36;;;;;;;;;;;;;;;;;;6178918;23;19924;-79
2022/03/26 14:35:03;;;;;;;;;;;;;;;;;;6179228;23;19927;-79
2022/03/26 14:37:29;;;;;;;;;;;;;;;;;;6179890;23;20003;-79
2022/03/26 14:39:56;;;;;;;;;;;;;;;;;;6179646;23;20125;-79
2022/03/26 14:42:37;;;;;;;;;;;;;;;;;;6118526;23;20745;-79
2022/03/26 14:45:04;;;;;;;;;;;;;;;;;;6093402;23;19920;-79
2022/03/26 14:47:32;;;;;;;;;;;;;;;;;;6118450;23;19917;-79
2022/03/26 14:49:59;;;;;;;;;;;;;;;;;;6093418;23;19921;-79
2022/03/26 14:52:32;;;;;;;;;;;;;;;;;;6117329;23;19943;-79
2022/03/26 14:54:59;;;;;;;;;;;;;;;;;;6119267;23;20585;-79
2022/03/26 14:57:26;;;;;;;;;;;;;;;;;;6093791;23;19920;-79
2022/03/26 14:59:56;;;;;;;;;;;;;;;;;;6118585;23;19917;-79
2022/03/26 15:02:41;;;;;;;;;;;;;;;;;;6118731;23;19949;-79
2022/03/26 15:05:08;;;;;;;;;;;;;;;;;;6094189;23;19921;-79
2022/03/26 15:07:34;;;;;;;;;;;;;;;;;;6114131;23;19925;-79
2022/03/26 15:10:02;;;;;;;;;;;;;;;;;;6093012;23;20385;-79
2022/03/26 15:12:29;;;;;;;;;;;;;;;;;;6119989;23;20365;-79
2022/03/26 15:14:56;;;;;;;;;;;;;;;;;;6154540;23;19955;-78
2022/03/26 15:17:24;;;;;;;;;;;;;;;;;;6154330;23;20007;-79
2022/03/26 15:19:50;;;;;;;;;;;;;;;;;;6136665;23;20018;-79
2022/03/26 15:22:17;;;;;;;;;;;;;;;;;;6153372;23;20035;-79
2022/03/26 15:24:43;;;;;;;;;;;;;;;;;;6155107;23;20355;-79
2022/03/26 15:27:24;;;;;;;;;;;;;;;;;;6149101;23;19967;-79
2022/03/26 15:29:52;;;;;;;;;;;;;;;;;;6123597;23;20509;-79
2022/03/26 15:32:19;;;;;;;;;;;;;;;;;;6122712;23;19921;-79
2022/03/26 15:34:46;;;;;;;;;;;;;;;;;;6146171;23;19925;-79
2022/03/26 15:37:14;;;;;;;;;;;;;;;;;;6123493;23;19975;-79
2022/03/26 15:39:40;;;;;;;;;;;;;;;;;;6144307;23;19963;-79
2022/03/26 15:42:08;;;;;;;;;;;;;;;;;;6142722;23;19917;-79
2022/03/26 15:44:35;;;;;;;;;;;;;;;;;;6121339;23;19967;-79
2022/03/26 15:47:03;;;;;;;;;;;;;;;;;;6120524;23;19966;-79
2022/03/26 15:49:32;;;;;;;;;;;;;;;;;;6118902;23;19985;-79
2022/03/26 15:51:59;;;;;;;;;;;;;;;;;;6055619;23;19921;-79
2022/03/26 15:54:26;;;;;;;;;;;;;;;;;;6034144;23;20042;-79
2022/03/26 15:56:54;;;;;;;;;;;;;;;;;;6059248;23;19921;-79
2022/03/26 15:59:21;;;;;;;;;;;;;;;;;;6061464;23;19949;-79
2022/03/26 16:01:48;;;;;;;;;;;;;;;;;;6064713;23;20300;-79
2022/03/26 16:04:15;;;;;;;;;;;;;;;;;;6062772;23;19941;-79
2022/03/26 16:06:41;;;;;;;;;;;;;;;;;;6063225;23;19932;-79
2022/03/26 16:09:08;;;;;;;;;;;;;;;;;;6088944;23;20338;-79
2022/03/26 16:11:36;;;;;;;;;;;;;;;;;;6063810;23;19925;-79
2022/03/26 16:14:09;;;;;;;;;;;;;;;;;;6063528;23;20005;-79
2022/03/26 16:16:35;;;;;;;;;;;;;;;;;;6062712;23;20328;-79
2022/03/26 16:19:02;;;;;;;;;;;;;;;;;;6061933;23;19921;-81
2022/03/26 16:21:32;;;;;;;;;;;;;;;;;;6085253;23;19937;-82
2022/03/26 16:23:59;;;;;;;;;;;;;;;;;;6114503;23;19916;-82
2022/03/26 16:26:27;;;;;;;;;;;;;;;;;;6119482;23;19920;-81
2022/03/26 16:28:53;;;;;;;;;;;;;;;;;;6121860;23;19921;-81
2022/03/26 16:31:34;;;;;;;;;;;;;;;;;;6114416;23;19924;-82
2022/03/26 16:34:01;;;;;;;;;;;;;;;;;;6068578;23;19950;-82
2022/03/26 16:36:28;;;;;;;;;;;;;;;;;;6090471;23;20433;-81
2022/03/26 16:38:55;;;;;;;;;;;;;;;;;;6065535;23;19925;-81
2022/03/26 16:41:23;;;;;;;;;;;;;;;;;;6066604;23;19943;-81
2022/03/26 16:43:50;;;;;;;;;;;;;;;;;;6115541;23;19928;-82
2022/03/26 16:46:17;;;;;;;;;;;;;;;;;;6089326;23;19928;-81
2022/03/26 16:48:44;;;;;;;;;;;;;;;;;;6089757;23;19917;-81
2022/03/26 16:51:11;;;;;;;;;;;;;;;;;;6089297;23;20000;-81
2022/03/26 16:53:52;;;;;;;;;;;;;;;;;;6085869;23;20041;-82
2022/03/26 16:56:19;;;;;;;;;;;;;;;;;;6084693;23;20375;-81
2022/03/26 16:58:47;;;;;;;;;;;;;;;;;;6084354;23;20370;-81
2022/03/26 17:01:14;;;;;;;;;;;;;;;;;;6085208;23;19924;-81
2022/03/26 17:03:41;;;;;;;;;;;;;;;;;;6081284;23;20327;-82
2022/03/26 17:06:08;;;;;;;;;;;;;;;;;;6061920;23;19944;-81
2022/03/26 17:08:34;;;;;;;;;;;;;;;;;;6079974;23;19925;-81
2022/03/26 17:11:02;;;;;;;;;;;;;;;;;;6090940;23;20003;-81